createdAt,value
2019-05-16T00:01:38.538Z,98691.75
2019-05-16T00:04:08.759Z,98706.70
2019-05-16T00:06:39.203Z,98699.24
2019-05-16T00:11:51.854Z,98688.58
2019-05-16T00:14:20.782Z,98672.27
2019-05-16T00:16:49.784Z,98681.87
2019-05-16T00:19:19.017Z,98681.87
2019-05-16T00:21:48.691Z,98684.81
2019-05-16T00:24:18.789Z,98678.41
2019-05-16T00:26:47.958Z,98670.42
2019-05-16T00:29:18.390Z,98677.08
2019-05-16T00:33:01.662Z,98671.20
2019-05-16T00:35:31.643Z,98672.29
2019-05-16T00:37:59.753Z,98661.34
2019-05-16T00:42:08.776Z,98658.42
2019-05-16T00:44:38.734Z,98658.14
2019-05-16T00:47:08.707Z,98644.75
2019-05-16T00:49:38.600Z,98644.75
2019-05-16T00:52:07.886Z,98655.18
2019-05-16T00:54:38.531Z,98655.18
2019-05-16T00:57:09.044Z,98651.70
2019-05-16T00:59:39.954Z,98655.44
2019-05-16T01:02:09.151Z,98655.44
2019-05-16T01:05:14.478Z,98646.94
2019-05-16T01:07:44.157Z,98654.89
2019-05-16T01:10:18.133Z,98630.34
2019-05-16T01:12:48.025Z,98643.42
2019-05-16T01:15:18.868Z,98643.42
2019-05-16T01:18:28.520Z,98635.16
2019-05-16T01:20:58.797Z,98637.28
2019-05-16T01:23:30.351Z,98633.28
2019-05-16T01:25:59.045Z,98632.74
2019-05-16T01:28:28.803Z,98638.35
2019-05-16T01:30:57.999Z,98636.21
2019-05-16T01:33:28.093Z,98620.73
2019-05-16T01:35:58.491Z,98620.73
2019-05-16T01:38:28.481Z,98632.48
2019-05-16T01:40:58.309Z,98621.80
2019-05-16T01:43:28.875Z,98622.34
2019-05-16T01:45:57.796Z,98624.20
2019-05-16T01:48:28.985Z,98618.60
2019-05-16T01:50:58.411Z,98618.60
2019-05-16T01:53:28.451Z,98600.71
2019-05-16T01:55:58.118Z,98600.71
2019-05-16T01:58:29.130Z,98612.99
2019-05-16T02:01:10.466Z,98601.79
2019-05-16T02:03:30.399Z,98599.12
2019-05-16T02:05:59.744Z,98606.35
2019-05-16T02:08:29.689Z,98603.64
2019-05-16T02:10:59.411Z,98589.80
2019-05-16T02:13:30.766Z,98586.34
2019-05-16T02:16:02.557Z,98587.91
2019-05-16T02:18:31.662Z,98605.25
2019-05-16T02:21:01.683Z,98605.25
2019-05-16T02:23:30.616Z,98603.64
2019-05-16T02:26:02.296Z,98603.64
2019-05-16T02:28:39.782Z,98598.59
2019-05-16T02:33:14.163Z,98589.02
2019-05-16T02:35:42.286Z,98593.78
2019-05-16T02:38:11.788Z,98597.78
2019-05-16T02:40:41.917Z,98594.86
2019-05-16T02:43:12.526Z,98594.86
2019-05-16T02:47:55.357Z,98574.59
2019-05-16T02:50:24.410Z,98574.59
2019-05-16T02:52:52.149Z,98584.45
2019-05-16T02:55:21.857Z,98584.45
2019-05-16T02:57:51.306Z,98576.20
2019-05-16T03:00:33.239Z,98575.68
2019-05-16T03:03:02.311Z,98573.27
2019-05-16T03:05:31.248Z,98567.92
2019-05-16T03:08:01.302Z,98567.92
2019-05-16T03:10:31.182Z,98569.78
2019-05-16T03:13:00.857Z,98565.27
2019-05-16T03:15:30.909Z,98563.66
2019-05-16T03:18:00.446Z,98557.29
2019-05-16T03:20:31.907Z,98556.75
2019-05-16T03:23:02.250Z,98549.55
2019-05-16T03:25:31.415Z,98554.89
2019-05-16T03:28:01.848Z,98547.42
2019-05-16T03:30:34.924Z,98542.88
2019-05-16T03:33:04.769Z,98539.68
2019-05-16T03:35:33.964Z,98539.68
2019-05-16T03:38:05.559Z,98536.50
2019-05-16T03:40:32.017Z,98534.90
2019-05-16T03:43:01.584Z,98534.61
2019-05-16T03:45:32.040Z,98524.22
2019-05-16T03:48:02.812Z,98534.62
2019-05-16T03:50:30.810Z,98529.02
2019-05-16T03:53:01.514Z,98529.02
2019-05-16T03:55:32.357Z,98530.07
2019-05-16T03:58:01.134Z,98530.07
2019-05-16T04:00:52.139Z,98515.95
2019-05-16T04:03:21.448Z,98515.95
2019-05-16T04:05:52.662Z,98531.69
2019-05-16T04:08:24.774Z,98527.95
2019-05-16T04:10:52.072Z,98527.95
2019-05-16T04:13:22.178Z,98524.77
2019-05-16T04:15:52.402Z,98524.75
2019-05-16T04:19:51.294Z,98521.55
2019-05-16T04:22:21.449Z,98521.55
2019-05-16T04:24:51.293Z,98525.84
2019-05-16T04:27:21.221Z,98492.25
2019-05-16T04:29:51.338Z,98492.25
2019-05-16T04:32:20.872Z,98523.16
2019-05-16T04:34:50.936Z,98521.02
2019-05-16T04:37:24.063Z,98516.77
2019-05-16T04:39:50.748Z,98509.84
2019-05-16T04:42:21.406Z,98515.16
2019-05-16T04:44:51.566Z,98515.16
2019-05-16T04:47:21.083Z,98515.15
2019-05-16T04:49:51.784Z,98514.63
2019-05-16T04:52:21.525Z,98510.09
2019-05-16T04:54:51.208Z,98510.08
2019-05-16T04:57:20.969Z,98501.81
2019-05-16T04:59:50.849Z,98508.23
2019-05-16T05:02:21.380Z,98508.23
2019-05-16T05:04:50.899Z,98511.95
2019-05-16T05:07:20.659Z,98513.55
2019-05-16T05:09:51.160Z,98515.72
2019-05-16T05:12:20.815Z,98497.02
2019-05-16T05:14:50.800Z,98497.02
2019-05-16T05:17:17.145Z,98514.09
2019-05-16T05:19:45.237Z,98514.64
2019-05-16T05:23:41.807Z,98500.77
2019-05-16T05:26:10.897Z,98498.64
2019-05-16T05:28:40.181Z,98498.64
2019-05-16T05:31:10.619Z,98483.98
2019-05-16T05:33:41.374Z,98485.30
2019-05-16T05:36:12.026Z,98498.08
2019-05-16T05:38:40.196Z,98498.08
2019-05-16T05:41:10.564Z,98497.53
2019-05-16T05:43:39.741Z,98497.53
2019-05-16T05:46:10.928Z,98496.48
2019-05-16T05:48:40.891Z,98492.19
2019-05-16T05:51:11.237Z,98497.00
2019-05-16T05:53:40.205Z,98501.55
2019-05-16T05:56:11.279Z,98504.48
2019-05-16T05:58:37.761Z,98509.27
2019-05-16T06:01:05.872Z,98508.48
2019-05-16T06:03:33.931Z,98499.93
2019-05-16T06:06:02.069Z,98483.38
2019-05-16T06:08:30.851Z,98483.38
2019-05-16T06:11:00.791Z,98498.03
2019-05-16T06:13:31.622Z,98493.23
2019-05-16T06:16:00.349Z,98492.16
2019-05-16T06:18:30.811Z,98492.12
2019-05-16T06:21:00.472Z,98492.12
2019-05-16T06:23:31.099Z,98500.13
2019-05-16T06:26:00.428Z,98500.13
2019-05-16T06:28:30.771Z,98493.16
2019-05-16T06:31:01.843Z,98493.93
2019-05-16T06:33:30.564Z,98493.93
2019-05-16T06:36:00.251Z,98486.97
2019-05-16T06:38:30.146Z,98482.91
2019-05-16T06:41:00.070Z,98482.91
2019-05-16T06:43:30.052Z,98473.80
2019-05-16T06:46:00.338Z,98476.98
2019-05-16T06:48:30.423Z,98473.51
2019-05-16T06:51:02.562Z,98474.82
2019-05-16T06:53:29.905Z,98471.83
2019-05-16T06:56:00.192Z,98469.03
2019-05-16T06:58:30.224Z,98469.03
2019-05-16T07:01:00.422Z,98466.58
2019-05-16T07:03:30.844Z,98466.58
2019-05-16T07:06:00.534Z,98465.77
2019-05-16T07:08:31.044Z,98466.00
2019-05-16T07:10:59.998Z,98466.00
2019-05-16T07:13:30.429Z,98467.54
2019-05-16T07:16:00.460Z,98460.27
2019-05-16T07:18:30.735Z,98463.16
2019-05-16T07:21:00.026Z,98465.62
2019-05-16T07:23:29.661Z,98465.62
2019-05-16T07:25:57.944Z,98443.17
2019-05-16T07:28:25.211Z,98443.17
2019-05-16T07:30:53.742Z,98454.77
2019-05-16T07:33:22.605Z,98453.94
2019-05-16T07:35:51.639Z,98453.63
2019-05-16T07:38:20.249Z,98443.20
2019-05-16T07:40:51.259Z,98450.31
2019-05-16T07:43:20.583Z,98450.31
2019-05-16T07:45:51.313Z,98448.80
2019-05-16T07:48:21.662Z,98430.15
2019-05-16T07:50:50.036Z,98430.15
2019-05-16T07:53:21.128Z,98442.60
2019-05-16T07:55:50.864Z,98443.09
2019-05-16T07:58:21.832Z,98431.08
2019-05-16T08:00:57.787Z,98431.08
2019-05-16T08:03:19.947Z,98448.61
2019-05-16T08:05:51.294Z,98425.30
2019-05-16T08:08:23.259Z,98428.29
2019-05-16T08:10:51.271Z,98428.29
2019-05-16T08:13:21.039Z,98435.62
2019-05-16T08:15:50.696Z,98438.31
2019-05-16T08:18:21.373Z,98438.31
2019-05-16T08:20:52.015Z,98433.97
2019-05-16T08:23:21.855Z,98441.95
2019-05-16T08:26:40.014Z,98430.02
2019-05-16T08:31:15.543Z,98422.66
2019-05-16T08:33:43.619Z,98432.65
2019-05-16T08:36:12.184Z,98422.91
2019-05-16T08:38:43.010Z,98409.69
2019-05-16T08:43:41.444Z,98415.96
2019-05-16T08:46:12.357Z,98419.12
2019-05-16T08:48:42.249Z,98408.89
2019-05-16T08:50:09.836Z,98415.96
2019-05-16T08:51:12.123Z,98404.76
2019-05-16T08:56:12.403Z,98411.97
2019-05-16T08:58:41.029Z,98403.55
2019-05-16T09:02:06.754Z,98392.68
2019-05-16T09:04:34.728Z,98392.68
2019-05-16T09:07:03.987Z,98388.50
2019-05-16T09:09:42.771Z,98379.77
2019-05-16T09:10:31.817Z,98404.76
2019-05-16T09:12:03.616Z,98379.77
2019-05-16T09:14:35.358Z,98379.24
2019-05-16T09:17:02.015Z,98369.28
2019-05-16T09:19:31.537Z,98369.28
2019-05-16T09:21:59.450Z,98374.91
2019-05-16T09:24:27.367Z,98360.34
2019-05-16T09:26:57.876Z,98358.60
2019-05-16T09:29:27.752Z,98352.88
2019-05-16T09:32:11.342Z,98356.41
2019-05-16T09:37:08.521Z,98352.28
2019-05-16T09:39:37.173Z,98350.48
2019-05-16T09:42:08.003Z,98334.25
2019-05-16T09:44:36.997Z,98334.25
2019-05-16T09:47:07.559Z,98340.86
2019-05-16T09:49:37.094Z,98340.86
2019-05-16T09:52:07.435Z,98336.17
2019-05-16T09:54:34.705Z,98337.11
2019-05-16T09:57:02.471Z,98329.70
2019-05-16T09:59:31.158Z,98325.67
2019-05-16T10:01:59.530Z,98329.08
2019-05-16T10:04:28.098Z,98319.88
2019-05-16T10:06:57.367Z,98319.88
2019-05-16T10:09:38.538Z,98316.84
2019-05-16T10:12:08.244Z,98311.63
2019-05-16T10:14:26.868Z,98311.63
2019-05-16T10:16:54.592Z,98308.78
2019-05-16T10:19:23.134Z,98307.38
2019-05-16T10:21:52.202Z,98302.75
2019-05-16T10:24:19.478Z,98303.31
2019-05-16T10:26:53.654Z,98302.37
2019-05-16T10:29:18.282Z,98303.23
2019-05-16T10:31:52.609Z,98280.89
2019-05-16T10:34:17.388Z,98280.89
2019-05-16T10:36:47.181Z,98300.95
2019-05-16T10:39:14.569Z,98294.37
2019-05-16T10:42:06.926Z,98286.08
2019-05-16T10:44:38.395Z,98279.59
2019-05-16T10:47:07.543Z,98281.31
2019-05-16T10:49:41.417Z,98285.34
2019-05-16T10:52:08.638Z,98282.05
2019-05-16T10:54:37.310Z,98274.79
2019-05-16T10:57:08.217Z,98269.72
2019-05-16T10:59:57.757Z,98265.49
2019-05-16T11:02:08.465Z,98263.08
2019-05-16T11:04:52.829Z,98263.08
2019-05-16T11:07:07.012Z,98260.42
2019-05-16T11:09:39.167Z,98253.59
2019-05-16T11:12:04.807Z,98253.59
2019-05-16T11:14:33.196Z,98248.53
2019-05-16T11:17:00.869Z,98248.53
2019-05-16T11:19:29.774Z,98242.25
2019-05-16T11:21:59.068Z,98242.25
2019-05-16T11:24:29.339Z,98248.47
2019-05-16T11:26:57.413Z,98239.80
2019-05-16T11:29:26.866Z,98224.47
2019-05-16T11:31:57.262Z,98224.47
2019-05-16T11:34:26.627Z,98240.27
2019-05-16T11:36:57.025Z,98226.38
2019-05-16T11:39:26.561Z,98238.95
2019-05-16T11:41:57.147Z,98238.95
2019-05-16T11:44:28.361Z,98237.34
2019-05-16T11:46:57.594Z,98241.37
2019-05-16T11:49:27.594Z,98233.45
2019-05-16T11:51:57.894Z,98233.95
2019-05-16T11:54:26.772Z,98217.27
2019-05-16T11:56:57.057Z,98217.27
2019-05-16T11:59:25.481Z,98221.05
2019-05-16T12:01:53.284Z,98221.05
2019-05-16T12:04:21.012Z,98221.66
2019-05-16T12:06:48.366Z,98213.67
2019-05-16T12:09:17.818Z,98216.59
2019-05-16T12:11:46.216Z,98218.44
2019-05-16T12:14:16.474Z,98212.03
2019-05-16T12:16:47.017Z,98205.26
2019-05-16T12:19:14.017Z,98205.26
2019-05-16T12:21:41.272Z,98203.30
2019-05-16T12:24:08.834Z,98194.14
2019-05-16T12:26:37.677Z,98195.13
2019-05-16T12:29:07.017Z,98192.44
2019-05-16T12:31:37.364Z,98192.44
2019-05-16T12:34:08.989Z,98183.75
2019-05-16T12:36:37.750Z,98181.80
2019-05-16T12:39:07.951Z,98166.89
2019-05-16T12:41:41.167Z,98171.05
2019-05-16T12:44:07.843Z,98173.97
2019-05-16T12:46:36.529Z,98173.97
2019-05-16T12:49:22.505Z,98168.47
2019-05-16T12:51:51.608Z,98167.74
2019-05-16T12:59:02.318Z,98169.70
2019-05-16T13:01:34.371Z,98161.40
2019-05-16T13:04:03.545Z,98156.16
2019-05-16T13:06:31.050Z,98156.16
2019-05-16T13:09:00.164Z,98153.67
2019-05-16T13:11:29.975Z,98138.38
2019-05-16T13:14:06.255Z,98138.38
2019-05-16T13:16:29.724Z,98156.10
2019-05-16T13:18:57.813Z,98138.00
2019-05-16T13:21:27.685Z,98136.36
2019-05-16T13:23:57.388Z,98136.36
2019-05-16T13:26:26.186Z,98129.89
2019-05-16T13:28:53.815Z,98127.74
2019-05-16T13:31:23.403Z,98129.33
2019-05-16T13:33:51.075Z,98123.53
2019-05-16T13:36:19.095Z,98123.53
2019-05-16T13:38:48.275Z,98117.02
2019-05-16T13:41:18.470Z,98113.41
2019-05-16T13:43:47.283Z,98109.66
2019-05-16T13:46:17.186Z,98102.81
2019-05-16T13:48:46.938Z,98105.63
2019-05-16T13:51:19.096Z,98100.75
2019-05-16T13:53:47.419Z,98100.75
2019-05-16T13:56:17.644Z,98090.37
2019-05-16T13:58:46.991Z,98077.32
2019-05-16T14:01:17.128Z,98077.32
2019-05-16T14:03:48.041Z,98082.92
2019-05-16T14:06:18.459Z,98072.80
2019-05-16T14:08:46.847Z,98070.25
2019-05-16T14:11:14.732Z,98067.37
2019-05-16T14:13:42.807Z,98049.63
2019-05-16T14:16:10.983Z,98061.94
2019-05-16T14:18:39.546Z,98051.94
2019-05-16T14:21:08.026Z,98051.94
2019-05-16T14:23:38.408Z,98050.86
2019-05-16T14:26:07.106Z,98054.62
2019-05-16T14:28:37.551Z,98050.13
2019-05-16T14:31:07.156Z,98049.22
2019-05-16T14:33:36.894Z,98038.31
2019-05-16T14:36:07.280Z,98038.31
2019-05-16T14:38:37.447Z,98044.91
2019-05-16T14:41:07.780Z,98046.75
2019-05-16T14:43:36.429Z,98046.75
2019-05-16T14:46:07.117Z,98043.19
2019-05-16T14:48:37.058Z,98043.19
2019-05-16T14:51:05.861Z,98042.91
2019-05-16T14:53:34.113Z,98042.91
2019-05-16T14:56:02.071Z,98040.23
2019-05-16T14:58:30.963Z,98039.30
2019-05-16T15:00:59.900Z,98036.63
2019-05-16T15:03:29.932Z,98035.34
2019-05-16T15:05:59.181Z,98030.72
2019-05-16T15:08:27.592Z,98028.21
2019-05-16T15:10:58.427Z,98026.33
2019-05-16T15:13:27.997Z,98026.33
2019-05-16T15:15:57.803Z,98026.70
2019-05-16T15:18:27.955Z,98024.99
2019-05-16T15:20:58.265Z,98018.28
2019-05-16T15:23:29.631Z,98011.28
2019-05-16T15:25:59.990Z,98004.81
2019-05-16T15:28:30.959Z,98004.81
2019-05-16T15:31:01.043Z,98010.25
2019-05-16T15:33:30.538Z,98006.25
2019-05-16T15:36:00.450Z,98006.25
2019-05-16T15:38:30.469Z,97991.56
2019-05-16T15:41:00.873Z,98007.13
2019-05-16T15:43:31.409Z,98007.42
2019-05-16T15:46:01.307Z,98007.42
2019-05-16T15:48:31.431Z,98003.64
2019-05-16T15:51:00.940Z,98001.53
2019-05-16T15:53:30.859Z,98001.89
2019-05-16T15:56:00.761Z,97995.19
2019-05-16T15:58:31.287Z,97995.19
2019-05-16T16:01:00.623Z,97990.30
2019-05-16T16:03:29.744Z,97985.01
2019-05-16T16:06:00.626Z,97985.01
2019-05-16T16:09:13.361Z,97974.89
2019-05-16T16:11:43.258Z,97965.30
2019-05-16T16:14:12.064Z,97963.86
2019-05-16T16:16:42.320Z,97979.20
2019-05-16T16:19:12.005Z,97979.20
2019-05-16T16:21:41.967Z,97978.16
2019-05-16T16:24:11.421Z,97978.16
2019-05-16T16:26:41.825Z,97974.34
2019-05-16T16:29:12.207Z,97965.05
2019-05-16T16:31:41.204Z,97970.73
2019-05-16T16:34:11.524Z,97967.11
2019-05-16T16:36:41.439Z,97967.11
2019-05-16T16:39:27.083Z,97953.70
2019-05-16T16:41:57.207Z,97971.08
2019-05-16T16:44:27.471Z,97955.15
2019-05-16T16:46:57.988Z,97955.15
2019-05-16T16:49:28.094Z,97958.09
2019-05-16T16:51:57.411Z,97964.84
2019-05-16T16:54:27.556Z,97964.84
2019-05-16T16:56:58.247Z,97969.22
2019-05-16T16:59:28.447Z,97963.71
2019-05-16T17:01:58.389Z,97963.71
2019-05-16T17:05:13.457Z,97960.00
2019-05-16T17:07:42.239Z,97969.75
2019-05-16T17:10:11.540Z,97962.02
2019-05-16T17:12:42.494Z,97960.09
2019-05-16T17:15:13.030Z,97960.09
2019-05-16T17:17:42.989Z,97957.30
2019-05-16T17:20:13.709Z,97955.19
2019-05-16T17:22:43.315Z,97958.60
2019-05-16T17:25:12.284Z,97965.53
2019-05-16T17:27:41.688Z,97948.96
2019-05-16T17:30:17.003Z,97945.90
2019-05-16T17:32:46.739Z,97945.90
2019-05-16T17:35:18.724Z,97958.60
2019-05-16T17:37:47.915Z,97957.95
2019-05-16T17:40:18.354Z,97956.55
2019-05-16T17:42:48.420Z,97956.55
2019-05-16T17:45:18.464Z,97953.93
2019-05-16T17:47:48.136Z,97951.93
2019-05-16T17:50:17.745Z,97937.30
2019-05-16T17:52:48.004Z,97937.30
2019-05-16T17:55:17.398Z,97950.83
2019-05-16T17:57:47.906Z,97927.92
2019-05-16T18:00:25.358Z,97947.34
2019-05-16T18:02:49.187Z,97947.34
2019-05-16T18:05:18.679Z,97949.79
2019-05-16T18:07:49.266Z,97949.79
2019-05-16T18:10:19.420Z,97949.79
2019-05-16T18:12:49.790Z,97951.74
2019-05-16T18:15:22.700Z,97951.74
2019-05-16T18:17:51.908Z,97952.11
2019-05-16T18:20:22.436Z,97936.97
2019-05-16T18:22:52.293Z,97950.77
2019-05-16T18:25:23.566Z,97950.77
2019-05-16T18:27:53.095Z,97951.23
2019-05-16T18:30:27.129Z,97947.28
2019-05-16T18:32:56.474Z,97946.98
2019-05-16T18:35:27.272Z,97939.78
2019-05-16T18:37:57.085Z,97939.78
2019-05-16T18:40:27.113Z,97944.81
2019-05-16T18:42:57.208Z,97923.06
2019-05-16T18:45:27.462Z,97917.95
2019-05-16T18:47:57.559Z,97928.90
2019-05-16T18:50:27.142Z,97938.85
2019-05-16T18:52:57.139Z,97932.99
2019-05-16T18:55:27.737Z,97932.99
2019-05-16T18:57:57.613Z,97936.87
2019-05-16T19:00:27.927Z,97931.21
2019-05-16T19:02:56.409Z,97934.70
2019-05-16T19:05:27.242Z,97928.84
2019-05-16T19:07:57.048Z,97928.14
2019-05-16T19:10:26.990Z,97929.48
2019-05-16T19:12:59.719Z,97912.35
2019-05-16T19:15:28.272Z,97923.27
2019-05-16T19:17:58.682Z,97923.27
2019-05-16T19:20:27.204Z,97920.56
2019-05-16T19:22:58.868Z,97928.00
2019-05-16T19:25:28.415Z,97924.42
2019-05-16T19:27:58.404Z,97918.32
2019-05-16T19:30:27.734Z,97918.32
2019-05-16T19:33:41.032Z,97923.71
2019-05-16T19:36:11.136Z,97921.09
2019-05-16T19:38:41.108Z,97930.73
2019-05-16T19:41:11.220Z,97923.98
2019-05-16T19:43:42.260Z,97923.98
2019-05-16T19:46:12.470Z,97924.58
2019-05-16T19:48:46.331Z,97924.58
2019-05-16T19:51:16.431Z,97918.01
2019-05-16T19:53:47.063Z,97920.03
2019-05-16T19:56:17.865Z,97923.71
2019-05-16T19:58:47.789Z,97906.02
2019-05-16T20:01:17.466Z,97906.02
2019-05-16T20:03:47.135Z,97925.38
2019-05-16T20:06:17.030Z,97915.45
2019-05-16T20:08:45.998Z,97932.08
2019-05-16T20:11:16.888Z,97932.08
2019-05-16T20:13:47.728Z,97935.86
2019-05-16T20:16:18.654Z,97928.83
2019-05-16T20:18:48.725Z,97931.04
2019-05-16T20:21:18.518Z,97921.41
2019-05-16T20:23:47.833Z,97921.41
2019-05-16T20:26:16.936Z,97934.28
2019-05-16T20:28:47.440Z,97934.28
2019-05-16T20:31:17.342Z,97936.97
2019-05-16T20:33:47.060Z,97938.60
2019-05-16T20:36:17.303Z,97934.20
2019-05-16T20:38:46.607Z,97919.03
2019-05-16T20:41:17.101Z,97919.03
2019-05-16T20:43:47.519Z,97934.06
2019-05-16T20:46:16.869Z,97934.12
2019-05-16T20:48:46.334Z,97934.12
2019-05-16T20:51:16.903Z,97936.80
2019-05-16T20:53:49.824Z,97933.11
2019-05-16T20:56:19.536Z,97933.11
2019-05-16T20:58:49.749Z,97917.91
2019-05-16T21:01:19.180Z,97929.80
2019-05-16T21:03:49.014Z,97929.80
2019-05-16T21:06:18.649Z,97911.87
2019-05-16T21:10:46.431Z,97915.08
2019-05-16T21:13:17.295Z,97918.35
2019-05-16T21:15:47.685Z,97918.35
2019-05-16T21:18:17.813Z,97922.66
2019-05-16T21:22:10.768Z,97909.84
2019-05-16T21:24:40.664Z,97893.65
2019-05-16T21:27:10.846Z,97893.65
2019-05-16T21:29:39.803Z,97913.61
2019-05-16T21:32:13.333Z,97911.92
2019-05-16T21:34:42.801Z,97911.92
2019-05-16T21:37:17.195Z,97911.17
2019-05-16T21:39:43.566Z,97910.78
2019-05-16T21:42:16.487Z,97899.78
2019-05-16T21:44:46.672Z,97894.03
2019-05-16T21:47:16.862Z,97894.03
2019-05-16T21:49:47.315Z,97883.13
2019-05-16T21:52:18.225Z,97884.33
2019-05-16T21:54:48.314Z,97884.33
2019-05-16T21:57:19.958Z,97879.81
2019-05-16T22:02:20.577Z,97875.34
2019-05-16T22:04:50.609Z,97880.23
2019-05-16T22:07:32.643Z,97872.48
2019-05-16T22:09:51.230Z,97877.91
2019-05-16T22:12:40.474Z,97869.83
2019-05-16T22:15:10.539Z,97862.34
2019-05-16T22:17:41.823Z,97862.34
2019-05-16T22:20:12.004Z,97869.72
2019-05-16T22:22:42.267Z,97867.91
2019-05-16T22:25:11.554Z,97840.84
2019-05-16T22:27:41.150Z,97840.84
2019-05-16T22:30:13.236Z,97855.17
2019-05-16T22:32:43.334Z,97855.55
2019-05-16T22:35:12.931Z,97831.05
2019-05-16T22:37:52.060Z,97829.25
2019-05-16T22:40:13.952Z,97843.30
2019-05-16T22:42:42.627Z,97843.30
2019-05-16T22:45:13.483Z,97848.93
2019-05-16T22:47:42.811Z,97841.50
2019-05-16T22:50:12.319Z,97841.50
2019-05-16T22:52:42.133Z,97827.38
2019-05-16T22:55:11.384Z,97827.38
2019-05-16T22:57:40.804Z,97826.80
2019-05-16T23:00:13.067Z,97819.44
2019-05-16T23:02:42.521Z,97801.02
2019-05-16T23:05:11.754Z,97801.02
2019-05-16T23:08:10.710Z,97818.11
2019-05-16T23:10:41.575Z,97821.13
2019-05-16T23:13:11.847Z,97789.58
2019-05-16T23:15:40.397Z,97810.27
2019-05-16T23:18:09.958Z,97810.27
2019-05-16T23:20:39.396Z,97807.59
2019-05-16T23:23:08.711Z,97786.39
2019-05-16T23:25:37.491Z,97800.73
2019-05-16T23:28:07.639Z,97800.73
2019-05-16T23:30:38.318Z,97790.06
2019-05-16T23:33:07.488Z,97790.97
2019-05-16T23:35:37.702Z,97790.97
2019-05-16T23:38:18.524Z,97789.06
2019-05-16T23:40:38.138Z,97795.75
2019-05-16T23:43:07.712Z,97775.64
2019-05-16T23:45:37.651Z,97775.64
2019-05-16T23:48:10.260Z,97786.73
2019-05-16T23:50:37.796Z,97784.89
2019-05-16T23:53:07.551Z,97763.22
2019-05-16T23:55:37.146Z,97763.22
2019-05-16T23:58:07.678Z,97784.89
